< Typhoon 202212 2022 Season Typhoon 202214 >
Typhoon 202213 (MERBOK)
General InformationDetailed Track InformationTrack Information on Google MapsForecast History on Google MapsAccess Analytics MapList of All Images || NewsDisaster Info.JMA Disaster Info. XMLWeblogTrackbackTyphoon FrontTwiphoonTyphoon Now!Typhoon ImaginationResourceGoogle EarthGE AnimationAtom FeedGeoJSON
Detalied Best Track Wind (Time Zone = UTC)
Year Month Day Hour Lat. Long. Wind (kt) Gust (kt) Direc. of Major Storm Axis Radius of Major Storm Axis (nm) Radius of Minor Storm Axis (nm) Direc. of Major Gale Axis Radius of Major Gale Axis (nm) Radius of Minor Gale Axis (nm) Image
2022 9 11 06 20.9 159.8 30 45 - - - - - - Image
2022 9 11 09 20.9 160.2 30 45 - - - - - - Image
2022 9 11 12 20.8 160.3 30 45 - - - - - - Image
2022 9 11 15 21.0 160.7 30 45 - - - - - - Image
2022 9 11 18 21.2 161.0 30 45 - - - - - - Image
2022 9 11 21 21.4 161.4 30 45 - - - - - - Image
2022 9 12 00 21.2 161.3 35 50 - - - E 210 120 Image
2022 9 12 03 21.6 161.7 35 50 - - - E 210 120 Image
2022 9 12 06 21.8 162.0 40 60 - - - E 210 120 Image
2022 9 12 09 22.1 162.3 40 60 - - - E 210 120 Image
2022 9 12 12 22.7 162.7 50 70 - - - E 270 150 Image
2022 9 12 15 23.1 162.8 50 70 - - - E 270 150 Image
2022 9 12 18 23.2 162.9 55 80 symmetric 30 30 E 270 150 Image
2022 9 12 21 23.5 163.3 55 80 symmetric 30 30 E 270 150 Image
2022 9 13 00 23.9 163.3 55 80 symmetric 60 60 E 270 150 Image
2022 9 13 03 24.4 163.1 55 80 symmetric 60 60 E 270 150 Image
2022 9 13 06 24.8 163.1 55 80 symmetric 60 60 E 270 150 Image
2022 9 13 09 25.2 163.2 60 85 symmetric 60 60 E 270 150 Image
2022 9 13 12 25.9 163.0 60 85 symmetric 60 60 E 270 150 Image
2022 9 13 15 26.4 162.6 60 85 symmetric 60 60 E 270 150 Image
2022 9 13 18 26.5 162.2 70 100 symmetric 60 60 E 270 150 Image
2022 9 13 21 27.6 162.1 70 100 symmetric 60 60 E 270 150 Image
2022 9 14 00 27.9 162.2 70 100 symmetric 60 60 E 270 150 Image
2022 9 14 03 29.0 162.0 70 100 symmetric 60 60 E 270 150 Image
2022 9 14 06 29.9 162.0 70 100 symmetric 60 60 E 270 150 Image
2022 9 14 09 30.9 162.0 70 100 symmetric 60 60 E 270 150 Image
2022 9 14 12 31.8 161.9 70 100 E 80 60 E 270 150 Image
2022 9 14 15 32.6 161.8 70 100 E 80 60 E 270 150 Image
2022 9 14 18 33.6 162.2 70 100 E 80 60 E 270 150 Image
2022 9 14 21 35.1 163.1 70 100 E 80 60 E 270 150 Image
2022 9 15 00 36.4 164.1 70 100 E 100 60 E 350 150 Image
2022 9 15 03 38.3 165.3 70 100 E 100 60 E 350 150 Image
2022 9 15 06 41.0 166.0 70 0 - - - W 600 500 Image
Japan Meteorological Agency Best Track Data | Correction Date : 2022-09-15
< Typhoon 202212 2022 Season Typhoon 202214 >

Help